createdAt,value
2022-10-29T00:00:51.629Z,101023.59
2022-10-29T00:03:20.663Z,101035.00
2022-10-29T00:05:59.711Z,101037.22
2022-10-29T00:08:28.192Z,101037.03
2022-10-29T00:10:58.199Z,101031.44
2022-10-29T00:13:26.049Z,101033.78
2022-10-29T00:15:53.806Z,101029.47
2022-10-29T00:18:21.521Z,101032.25
2022-10-29T00:20:49.725Z,101035.66
2022-10-29T00:23:17.611Z,101035.41
2022-10-29T00:25:45.573Z,101037.13
2022-10-29T00:28:15.093Z,101024.50
2022-10-29T00:30:42.846Z,101028.97
2022-10-29T00:33:10.743Z,101038.00
2022-10-29T00:35:38.519Z,101035.78
2022-10-29T00:38:06.810Z,101031.41
2022-10-29T00:40:37.754Z,101044.22
2022-10-29T00:43:17.630Z,101034.78
2022-10-29T00:45:50.577Z,101035.63
2022-10-29T00:48:18.740Z,101038.00
2022-10-29T00:50:48.881Z,101041.22
2022-10-29T00:53:24.913Z,101046.28
2022-10-29T00:55:52.808Z,101047.53
2022-10-29T00:58:23.534Z,101042.69
2022-10-29T01:00:51.322Z,101044.59
2022-10-29T01:03:19.287Z,101042.91
2022-10-29T01:05:47.968Z,101047.53
2022-10-29T01:08:17.492Z,101030.59
2022-10-29T01:10:59.002Z,101041.94
2022-10-29T01:13:41.085Z,101052.84
2022-10-29T01:16:16.387Z,101042.75
2022-10-29T01:18:55.455Z,101048.22
2022-10-29T01:21:43.403Z,101031.84
2022-10-29T01:24:50.578Z,101032.47
2022-10-29T01:27:58.419Z,101023.16
2022-10-29T01:31:06.653Z,101028.63
2022-10-29T01:33:39.747Z,101022.09
2022-10-29T01:36:17.044Z,101021.69
2022-10-29T01:38:52.640Z,101019.19
2022-10-29T01:41:26.966Z,101016.69
2022-10-29T01:44:01.693Z,101023.84
2022-10-29T01:46:38.135Z,101036.25
2022-10-29T01:49:12.860Z,101029.75
2022-10-29T01:51:41.482Z,101025.81
2022-10-29T01:54:12.022Z,101022.72
2022-10-29T01:56:41.423Z,101016.56
2022-10-29T01:59:22.977Z,101005.13
2022-10-29T02:02:14.542Z,101022.72
2022-10-29T02:05:00.302Z,101017.53
2022-10-29T02:07:39.295Z,101021.69
2022-10-29T02:10:16.161Z,101026.91
2022-10-29T02:12:49.939Z,101021.31
2022-10-29T02:15:20.704Z,101015.63
2022-10-29T02:17:50.411Z,101019.00
2022-10-29T02:20:18.888Z,101030.56
2022-10-29T02:22:46.731Z,101019.00
2022-10-29T02:25:15.319Z,101010.50
2022-10-29T02:27:43.069Z,101017.19
2022-10-29T02:30:11.712Z,101011.75
2022-10-29T02:32:39.526Z,101019.34
2022-10-29T02:35:10.033Z,101021.81
2022-10-29T02:37:37.827Z,101021.22
2022-10-29T02:40:06.693Z,101009.25
2022-10-29T02:42:34.729Z,101009.66
2022-10-29T02:45:02.623Z,101007.16
2022-10-29T02:47:30.561Z,100991.06
2022-10-29T02:49:58.405Z,100999.03
2022-10-29T02:52:27.861Z,101019.31
2022-10-29T02:54:55.667Z,101013.84
2022-10-29T02:57:24.990Z,101020.97
2022-10-29T02:59:52.851Z,101017.16
2022-10-29T03:02:23.993Z,101017.19
2022-10-29T03:04:53.460Z,101016.16
2022-10-29T03:07:21.247Z,101005.94
2022-10-29T03:09:50.379Z,101010.75
2022-10-29T03:12:18.100Z,101013.69
2022-10-29T03:14:46.083Z,101014.72
2022-10-29T03:17:13.835Z,101009.91
2022-10-29T03:19:41.697Z,100994.41
2022-10-29T03:22:09.892Z,101005.47
2022-10-29T03:24:38.139Z,100991.28
2022-10-29T03:27:07.222Z,101018.97
2022-10-29T03:29:34.948Z,101014.78
2022-10-29T03:32:03.483Z,101012.31
2022-10-29T03:34:31.459Z,101006.03
2022-10-29T03:36:59.193Z,101012.69
2022-10-29T03:39:28.292Z,101006.03
2022-10-29T03:41:56.097Z,101020.88
2022-10-29T03:44:25.194Z,101015.56
2022-10-29T03:46:52.909Z,101019.19
2022-10-29T03:49:20.638Z,101014.81
2022-10-29T03:51:48.336Z,101021.69
2022-10-29T03:54:16.309Z,101027.38
2022-10-29T03:56:44.100Z,101032.88
2022-10-29T03:59:11.832Z,101035.81
2022-10-29T04:01:41.053Z,101037.28
2022-10-29T04:04:08.914Z,101030.56
2022-10-29T04:06:36.608Z,101022.00
2022-10-29T04:09:04.646Z,101022.00
2022-10-29T04:11:32.440Z,101031.84
2022-10-29T04:14:00.149Z,101014.06
2022-10-29T04:16:27.876Z,101027.25
2022-10-29T04:18:56.982Z,101030.56
2022-10-29T04:24:32.444Z,101017.56
2022-10-29T04:29:47.861Z,101033.06
2022-10-29T04:32:15.624Z,101024.28
2022-10-29T04:34:44.720Z,101026.13
2022-10-29T04:37:12.510Z,101014.38
2022-10-29T04:39:40.252Z,101015.19
2022-10-29T04:42:08.080Z,100999.84
2022-10-29T04:44:35.926Z,100975.38
2022-10-29T04:47:03.767Z,100991.25
2022-10-29T04:49:31.630Z,100989.13
2022-10-29T04:52:00.860Z,100982.88
2022-10-29T04:54:28.714Z,100991.50
2022-10-29T04:56:56.440Z,100982.47
2022-10-29T04:59:24.347Z,100997.41
2022-10-29T05:01:52.137Z,100990.41
2022-10-29T05:04:19.935Z,100993.63
2022-10-29T05:06:47.701Z,100989.66
2022-10-29T05:09:16.817Z,100990.88
2022-10-29T05:11:44.777Z,101002.38
2022-10-29T05:14:12.595Z,101004.00
2022-10-29T05:16:40.444Z,101004.09
2022-10-29T05:19:08.129Z,101008.66
2022-10-29T05:21:35.982Z,101002.59
2022-10-29T05:24:03.830Z,100996.59
2022-10-29T05:26:33.194Z,100987.41
2022-10-29T05:29:00.942Z,100991.34
2022-10-29T05:31:28.712Z,100992.81
2022-10-29T05:33:56.538Z,100999.25
2022-10-29T05:36:24.439Z,100990.22
2022-10-29T05:38:52.249Z,100997.09
2022-10-29T05:41:20.092Z,100990.25
2022-10-29T05:43:51.079Z,100989.25
2022-10-29T05:46:19.013Z,100997.72
2022-10-29T05:48:46.808Z,100999.59
2022-10-29T05:51:14.587Z,100996.72
2022-10-29T05:53:42.313Z,100999.25
2022-10-29T05:56:10.045Z,101001.22
2022-10-29T05:58:37.817Z,100996.53
2022-10-29T06:01:08.969Z,100993.81
2022-10-29T06:03:37.150Z,100998.06
2022-10-29T06:06:05.341Z,100994.28
2022-10-29T06:08:33.228Z,101000.44
2022-10-29T06:11:02.801Z,101008.16
2022-10-29T06:13:31.133Z,101006.25
2022-10-29T06:16:00.570Z,101004.38
2022-10-29T06:18:29.709Z,100997.66
2022-10-29T06:21:00.342Z,101004.16
2022-10-29T06:23:28.342Z,101001.06
2022-10-29T06:25:56.096Z,100997.25
2022-10-29T06:28:23.896Z,101005.13
2022-10-29T06:30:52.272Z,101005.75
2022-10-29T06:33:20.536Z,100995.47
2022-10-29T06:35:49.851Z,101005.28
2022-10-29T06:38:17.616Z,100998.16
2022-10-29T06:40:53.389Z,101011.75
2022-10-29T06:43:21.536Z,101004.84
2022-10-29T06:45:49.959Z,101009.41
2022-10-29T06:48:21.685Z,101012.97
2022-10-29T06:50:51.490Z,101006.41
2022-10-29T06:53:19.487Z,101011.97
2022-10-29T06:55:47.403Z,101017.88
2022-10-29T06:58:17.073Z,101012.59
2022-10-29T07:00:45.622Z,101021.06
2022-10-29T07:03:14.274Z,101020.84
2022-10-29T07:05:42.040Z,101020.22
2022-10-29T07:08:11.194Z,101010.19
2022-10-29T07:10:39.664Z,101025.47
2022-10-29T07:13:07.439Z,101020.78
2022-10-29T07:15:35.306Z,101025.09
2022-10-29T07:18:05.216Z,101023.13
2022-10-29T07:20:34.687Z,101016.63
2022-10-29T07:23:02.819Z,101015.41
2022-10-29T07:25:32.758Z,101021.97
2022-10-29T07:28:04.252Z,101023.31
2022-10-29T07:30:32.200Z,101027.16
2022-10-29T07:32:59.985Z,101024.13
2022-10-29T07:35:27.832Z,101027.25
2022-10-29T07:38:03.637Z,101023.47
2022-10-29T07:40:40.212Z,101015.94
2022-10-29T07:43:08.115Z,101031.03
2022-10-29T07:45:35.957Z,101028.59
2022-10-29T07:48:07.165Z,101036.78
2022-10-29T07:50:35.265Z,101031.22
2022-10-29T07:53:04.402Z,101022.34
2022-10-29T07:55:32.311Z,101001.50
2022-10-29T07:58:03.350Z,101020.97
2022-10-29T08:00:32.320Z,101019.75
2022-10-29T08:03:00.181Z,101029.59
2022-10-29T08:05:29.457Z,101025.63
2022-10-29T08:07:58.285Z,100986.94
2022-10-29T08:10:27.174Z,101018.63
2022-10-29T08:12:56.802Z,101003.75
2022-10-29T08:15:27.572Z,101004.22
2022-10-29T08:17:55.648Z,100989.47
2022-10-29T08:20:25.195Z,101028.00
2022-10-29T08:22:52.971Z,101022.81
2022-10-29T08:25:21.072Z,101019.81
2022-10-29T08:27:59.290Z,101028.09
2022-10-29T08:30:28.861Z,101023.72
2022-10-29T08:32:57.058Z,101018.84
2022-10-29T08:35:25.325Z,101018.75
2022-10-29T08:37:53.157Z,100999.41
2022-10-29T08:40:30.005Z,101012.69
2022-10-29T08:43:26.428Z,101028.50
2022-10-29T08:45:56.696Z,101009.34
2022-10-29T08:48:34.264Z,101018.53
2022-10-29T08:51:10.724Z,101013.28
2022-10-29T08:53:42.298Z,101025.69
2022-10-29T08:56:16.937Z,101014.81
2022-10-29T08:58:53.589Z,101019.09
2022-10-29T09:01:24.653Z,101010.41
2022-10-29T09:03:52.772Z,101023.59
2022-10-29T09:06:29.794Z,101015.13
2022-10-29T09:09:18.141Z,101021.19
2022-10-29T09:12:02.340Z,101019.16
2022-10-29T09:14:47.177Z,101017.53
2022-10-29T09:17:27.998Z,101010.38
2022-10-29T09:20:23.222Z,101021.53
2022-10-29T09:23:02.977Z,101026.53
2022-10-29T09:25:34.451Z,101015.88
2022-10-29T09:28:18.385Z,101017.13
2022-10-29T09:30:58.534Z,101013.63
2022-10-29T09:33:28.806Z,101005.53
2022-10-29T09:35:59.740Z,101008.47
2022-10-29T09:38:32.828Z,101008.34
2022-10-29T09:41:03.141Z,101005.06
2022-10-29T09:43:39.754Z,101005.22
2022-10-29T09:46:14.501Z,100993.31
2022-10-29T09:48:55.438Z,101003.94
2022-10-29T09:51:34.556Z,101005.38
2022-10-29T09:54:02.888Z,101001.09
2022-10-29T09:56:30.850Z,100981.84
2022-10-29T09:59:18.451Z,100993.41
2022-10-29T10:01:48.310Z,100996.41
2022-10-29T10:04:23.627Z,100973.50
2022-10-29T10:07:07.275Z,100992.06
2022-10-29T10:09:59.607Z,100971.72
2022-10-29T10:12:32.171Z,100981.06
2022-10-29T10:15:09.156Z,100986.34
2022-10-29T10:17:59.425Z,100971.31
2022-10-29T10:20:40.877Z,100981.56
2022-10-29T10:23:23.613Z,100945.38
2022-10-29T10:25:52.591Z,100967.69
2022-10-29T10:28:22.858Z,100962.78
2022-10-29T10:31:13.887Z,100974.19
2022-10-29T10:33:53.119Z,100971.38
2022-10-29T10:36:26.213Z,100971.00
2022-10-29T10:38:56.309Z,100968.81
2022-10-29T10:41:26.840Z,100959.03
2022-10-29T10:44:00.264Z,100942.81
2022-10-29T10:46:31.729Z,100950.56
2022-10-29T10:49:07.414Z,100956.13
2022-10-29T10:51:38.537Z,100941.81
2022-10-29T10:54:27.342Z,100932.13
2022-10-29T10:57:00.521Z,100943.72
2022-10-29T10:59:41.061Z,100932.38
2022-10-29T11:02:21.664Z,100936.56
2022-10-29T11:04:53.013Z,100932.38
2022-10-29T11:07:24.870Z,100931.56
2022-10-29T11:09:56.689Z,100936.25
2022-10-29T11:12:31.934Z,100933.13
2022-10-29T11:15:05.154Z,100915.41
2022-10-29T11:17:40.504Z,100913.59
2022-10-29T11:20:16.974Z,100928.78
2022-10-29T11:22:55.814Z,100906.97
2022-10-29T11:25:29.696Z,100901.09
2022-10-29T11:28:04.636Z,100900.06
2022-10-29T11:30:41.190Z,100893.13
2022-10-29T11:33:19.048Z,100891.22
2022-10-29T11:35:51.493Z,100888.16
2022-10-29T11:38:27.254Z,100866.56
2022-10-29T11:41:04.726Z,100884.88
2022-10-29T11:43:34.110Z,100873.81
2022-10-29T11:46:12.467Z,100888.66
2022-10-29T11:48:52.036Z,100885.44
2022-10-29T11:51:33.207Z,100887.03
2022-10-29T11:54:07.662Z,100876.94
2022-10-29T11:56:48.796Z,100852.00
2022-10-29T11:59:28.413Z,100859.88
2022-10-29T12:02:08.622Z,100853.78
2022-10-29T12:04:42.327Z,100858.25
2022-10-29T12:07:23.914Z,100849.84
2022-10-29T12:10:28.755Z,100864.16
2022-10-29T12:13:04.429Z,100863.09
2022-10-29T12:15:38.050Z,100863.63
2022-10-29T12:18:17.749Z,100858.97
2022-10-29T12:21:16.115Z,100849.78
2022-10-29T12:23:55.383Z,100844.75
2022-10-29T12:26:31.567Z,100841.09
2022-10-29T12:29:11.426Z,100835.97
2022-10-29T12:31:46.706Z,100831.47
2022-10-29T12:34:23.069Z,100832.22
2022-10-29T12:36:59.340Z,100833.88
2022-10-29T12:39:30.365Z,100832.69
2022-10-29T12:42:04.268Z,100841.13
2022-10-29T12:44:45.020Z,100833.06
2022-10-29T12:47:18.367Z,100825.59
2022-10-29T12:49:56.408Z,100823.53
2022-10-29T12:52:30.452Z,100824.94
2022-10-29T12:55:00.840Z,100814.97
2022-10-29T12:57:35.278Z,100814.13
2022-10-29T13:00:48.507Z,100822.78
2022-10-29T13:03:54.486Z,100819.50
2022-10-29T13:06:47.001Z,100818.28
2022-10-29T13:09:19.934Z,100821.00
2022-10-29T13:11:49.718Z,100807.28
2022-10-29T13:14:25.311Z,100809.19
2022-10-29T13:16:54.711Z,100800.53
2022-10-29T13:19:45.536Z,100804.69
2022-10-29T13:22:35.548Z,100798.81
2022-10-29T13:25:43.664Z,100805.06
2022-10-29T13:28:46.726Z,100806.66
2022-10-29T13:31:43.470Z,100804.09
2022-10-29T13:34:11.265Z,100802.09
2022-10-29T13:36:39.298Z,100794.34
2022-10-29T13:39:19.820Z,100793.38
2022-10-29T13:41:52.064Z,100789.50
2022-10-29T13:44:23.813Z,100795.31
2022-10-29T13:46:57.294Z,100776.97
2022-10-29T13:49:30.443Z,100780.00
2022-10-29T13:52:01.457Z,100778.84
2022-10-29T13:54:38.995Z,100783.88
2022-10-29T13:57:15.451Z,100774.25
2022-10-29T13:59:47.665Z,100780.03
2022-10-29T14:02:24.586Z,100782.78
2022-10-29T14:04:57.449Z,100782.25
2022-10-29T14:07:31.687Z,100771.66
2022-10-29T14:10:16.319Z,100761.75
2022-10-29T14:12:47.315Z,100765.06
2022-10-29T14:15:16.586Z,100772.31
2022-10-29T14:17:45.900Z,100780.34
2022-10-29T14:20:22.513Z,100767.50
2022-10-29T14:22:50.293Z,100768.94
2022-10-29T14:25:32.701Z,100773.84
2022-10-29T14:28:25.679Z,100768.72
2022-10-29T14:31:02.490Z,100750.25
2022-10-29T14:33:33.838Z,100764.78
2022-10-29T14:36:12.707Z,100763.41
2022-10-29T14:38:47.989Z,100763.31
2022-10-29T14:41:16.643Z,100762.78
2022-10-29T14:43:46.653Z,100760.16
2022-10-29T14:46:22.139Z,100762.09
2022-10-29T14:49:00.654Z,100764.00
2022-10-29T14:51:30.402Z,100754.59
2022-10-29T14:54:02.678Z,100773.72
2022-10-29T14:56:36.532Z,100766.72
2022-10-29T14:59:11.432Z,100764.34
2022-10-29T15:01:47.695Z,100779.88
2022-10-29T15:04:26.138Z,100782.84
2022-10-29T15:06:56.832Z,100768.81
2022-10-29T15:09:28.400Z,100777.13
2022-10-29T15:12:01.738Z,100779.88
2022-10-29T15:14:36.551Z,100767.47
2022-10-29T15:17:11.446Z,100766.41
2022-10-29T15:19:46.070Z,100762.81
2022-10-29T15:22:20.564Z,100770.03
2022-10-29T15:24:51.604Z,100760.91
2022-10-29T15:27:21.923Z,100770.28
2022-10-29T15:29:50.508Z,100755.91
2022-10-29T15:34:53.289Z,100768.84
2022-10-29T15:37:25.767Z,100762.22
2022-10-29T15:40:03.293Z,100764.38
2022-10-29T15:42:33.230Z,100759.34
2022-10-29T15:45:19.471Z,100778.09
2022-10-29T15:47:49.593Z,100780.81
2022-10-29T15:50:21.571Z,100776.34
2022-10-29T15:52:54.137Z,100769.94
2022-10-29T15:55:26.897Z,100765.22
2022-10-29T15:58:00.576Z,100773.44
2022-10-29T16:00:29.517Z,100762.31
2022-10-29T16:03:03.398Z,100760.66
2022-10-29T16:05:32.853Z,100752.28
2022-10-29T16:08:03.286Z,100750.84
2022-10-29T16:10:31.401Z,100750.31
2022-10-29T16:13:00.208Z,100749.34
2022-10-29T16:18:00.989Z,100761.38
2022-10-29T16:20:28.865Z,100764.31
2022-10-29T16:22:58.223Z,100758.72
2022-10-29T16:25:27.851Z,100740.66
2022-10-29T16:27:56.304Z,100755.19
2022-10-29T16:30:24.936Z,100746.75
2022-10-29T16:32:53.397Z,100747.78
2022-10-29T16:35:23.067Z,100758.63
2022-10-29T16:37:52.106Z,100763.28
2022-10-29T16:40:23.462Z,100754.13
2022-10-29T16:42:51.761Z,100763.94
2022-10-29T16:45:22.393Z,100751.75
2022-10-29T16:47:51.942Z,100760.41
2022-10-29T16:50:22.061Z,100766.41
2022-10-29T16:52:56.755Z,100756.94
2022-10-29T16:55:26.251Z,100768.69
2022-10-29T16:57:54.504Z,100759.78
2022-10-29T17:00:23.267Z,100754.44
2022-10-29T17:02:51.045Z,100754.97
2022-10-29T17:05:19.473Z,100752.13
2022-10-29T17:07:47.259Z,100750.75
2022-10-29T17:10:17.257Z,100754.47
2022-10-29T17:12:46.437Z,100751.50
2022-10-29T17:15:14.650Z,100755.72
2022-10-29T17:17:45.497Z,100753.47
2022-10-29T17:20:14.712Z,100758.88
2022-10-29T17:22:42.550Z,100750.06
2022-10-29T17:25:10.941Z,100757.81
2022-10-29T17:27:39.421Z,100758.13
2022-10-29T17:30:10.860Z,100751.81
2022-10-29T17:32:38.692Z,100755.72
2022-10-29T17:35:07.241Z,100766.69
2022-10-29T17:37:35.362Z,100749.75
2022-10-29T17:40:06.951Z,100756.28
2022-10-29T17:42:36.787Z,100753.44
2022-10-29T17:45:10.232Z,100742.91
2022-10-29T17:50:11.315Z,100771.28
2022-10-29T17:52:39.042Z,100772.06
2022-10-29T17:55:07.846Z,100768.03
2022-10-29T17:57:36.029Z,100778.63
2022-10-29T18:00:04.716Z,100764.41
2022-10-29T18:02:34.031Z,100766.06
2022-10-29T18:05:01.962Z,100769.41
2022-10-29T18:07:29.835Z,100768.81
2022-10-29T18:09:57.899Z,100782.13
2022-10-29T18:12:25.880Z,100775.63
2022-10-29T18:14:53.743Z,100779.44
2022-10-29T18:17:21.738Z,100786.34
2022-10-29T18:19:51.060Z,100774.56
2022-10-29T18:22:19.124Z,100777.31
2022-10-29T18:24:46.977Z,100780.28
2022-10-29T18:27:14.924Z,100777.53
2022-10-29T18:29:42.712Z,100777.19
2022-10-29T18:32:10.488Z,100778.84
2022-10-29T18:34:38.451Z,100772.66
2022-10-29T18:37:07.820Z,100778.63
2022-10-29T18:39:35.753Z,100772.44
2022-10-29T18:42:03.596Z,100771.13
2022-10-29T18:44:31.616Z,100780.03
2022-10-29T18:46:59.517Z,100769.47
2022-10-29T18:49:28.011Z,100768.28
2022-10-29T18:51:55.936Z,100771.50
2022-10-29T18:54:25.204Z,100768.75
2022-10-29T18:56:53.049Z,100775.91
2022-10-29T18:59:21.476Z,100777.06
2022-10-29T19:01:49.332Z,100771.69
2022-10-29T19:04:17.431Z,100776.47
2022-10-29T19:06:45.300Z,100775.41
2022-10-29T19:09:13.452Z,100771.81
2022-10-29T19:11:42.747Z,100748.03
2022-10-29T19:14:17.579Z,100745.06
2022-10-29T19:16:45.505Z,100770.75
2022-10-29T19:19:17.033Z,100770.16
2022-10-29T19:21:46.495Z,100767.28
2022-10-29T19:24:15.863Z,100767.66
2022-10-29T19:26:45.156Z,100765.38
2022-10-29T19:29:14.195Z,100752.56
2022-10-29T19:31:42.518Z,100759.19
2022-10-29T19:34:10.848Z,100760.78
2022-10-29T19:36:40.150Z,100760.53
2022-10-29T19:39:08.760Z,100761.00
2022-10-29T19:41:36.830Z,100750.28
2022-10-29T19:44:06.505Z,100759.78
2022-10-29T19:46:34.550Z,100761.34
2022-10-29T19:49:02.561Z,100762.66
2022-10-29T19:51:30.567Z,100768.72
2022-10-29T19:54:01.443Z,100752.66
2022-10-29T19:56:29.373Z,100763.19
2022-10-29T19:58:57.153Z,100764.03
2022-10-29T20:01:26.506Z,100760.69
2022-10-29T20:03:54.489Z,100753.44
2022-10-29T20:06:22.374Z,100757.00
2022-10-29T20:08:50.360Z,100772.22
2022-10-29T20:11:18.362Z,100767.09
2022-10-29T20:13:46.585Z,100755.28
2022-10-29T20:16:16.993Z,100767.44
2022-10-29T20:18:46.487Z,100770.16
2022-10-29T20:21:15.159Z,100768.16
2022-10-29T20:23:43.221Z,100757.81
2022-10-29T20:26:11.704Z,100754.72
2022-10-29T20:28:39.514Z,100767.44
2022-10-29T20:31:30.142Z,100762.59
2022-10-29T20:34:01.485Z,100765.66
2022-10-29T20:36:32.230Z,100763.28
2022-10-29T20:39:00.329Z,100768.50
2022-10-29T20:41:29.150Z,100769.34
2022-10-29T20:44:00.898Z,100769.31
2022-10-29T20:46:29.678Z,100746.81
2022-10-29T20:48:58.014Z,100755.72
2022-10-29T20:51:28.374Z,100776.19
2022-10-29T20:53:58.237Z,100770.47
2022-10-29T20:56:28.355Z,100760.84
2022-10-29T20:58:56.426Z,100776.72
2022-10-29T21:01:25.899Z,100772.44
2022-10-29T21:03:54.365Z,100766.88
2022-10-29T21:06:22.928Z,100774.34
2022-10-29T21:08:53.268Z,100780.44
2022-10-29T21:11:22.810Z,100767.53
2022-10-29T21:13:51.557Z,100778.63
2022-10-29T21:16:21.318Z,100780.31
2022-10-29T21:18:50.889Z,100774.91
2022-10-29T21:21:19.819Z,100755.53
2022-10-29T21:23:48.053Z,100752.88
2022-10-29T21:26:19.255Z,100761.56
2022-10-29T21:28:48.460Z,100777.28
2022-10-29T21:31:16.672Z,100777.63
2022-10-29T21:33:44.723Z,100772.03
2022-10-29T21:36:14.130Z,100771.38
2022-10-29T21:38:42.174Z,100767.97
2022-10-29T21:41:10.027Z,100770.47
2022-10-29T21:43:39.676Z,100769.00
2022-10-29T21:46:08.227Z,100770.91
2022-10-29T21:48:36.663Z,100770.91
2022-10-29T21:51:07.060Z,100755.66
2022-10-29T21:53:35.323Z,100755.75
2022-10-29T21:56:04.819Z,100737.09
2022-10-29T21:58:32.697Z,100763.97
2022-10-29T22:01:07.181Z,100757.56
2022-10-29T22:03:36.088Z,100763.84
2022-10-29T22:06:05.898Z,100750.53
2022-10-29T22:08:34.836Z,100749.78
2022-10-29T22:11:03.699Z,100750.53
2022-10-29T22:13:33.590Z,100761.00
2022-10-29T22:16:02.250Z,100753.94
2022-10-29T22:18:31.611Z,100752.41
2022-10-29T22:21:08.079Z,100765.63
2022-10-29T22:23:37.948Z,100751.50
2022-10-29T22:26:06.028Z,100750.00
2022-10-29T22:28:33.822Z,100752.16
2022-10-29T22:31:03.254Z,100755.25
2022-10-29T22:33:32.803Z,100756.69
2022-10-29T22:36:09.373Z,100748.97
2022-10-29T22:38:37.442Z,100738.13
2022-10-29T22:41:06.617Z,100749.66
2022-10-29T22:43:34.606Z,100738.97
2022-10-29T22:46:02.851Z,100744.75
2022-10-29T22:48:32.207Z,100737.41
2022-10-29T22:51:01.594Z,100741.56
2022-10-29T22:53:29.572Z,100729.72
2022-10-29T22:55:57.397Z,100737.53
2022-10-29T22:58:25.366Z,100746.09
2022-10-29T23:01:02.709Z,100729.63
2022-10-29T23:03:32.093Z,100735.28
2022-10-29T23:06:01.416Z,100724.16
2022-10-29T23:08:29.974Z,100725.22
2022-10-29T23:10:58.051Z,100721.91
2022-10-29T23:13:26.000Z,100709.88
2022-10-29T23:15:54.499Z,100734.84
2022-10-29T23:18:22.218Z,100746.66
2022-10-29T23:20:58.761Z,100736.22
2022-10-29T23:23:26.538Z,100746.53
2022-10-29T23:25:57.648Z,100748.44
2022-10-29T23:28:25.400Z,100754.13
2022-10-29T23:30:53.975Z,100750.31
2022-10-29T23:33:21.874Z,100753.06
2022-10-29T23:35:51.597Z,100750.09
2022-10-29T23:38:19.428Z,100747.38
2022-10-29T23:40:48.371Z,100751.06
2022-10-29T23:43:16.440Z,100752.59
2022-10-29T23:45:44.418Z,100734.72
2022-10-29T23:48:12.199Z,100738.81
2022-10-29T23:50:40.318Z,100738.19
2022-10-29T23:53:09.584Z,100743.44
2022-10-29T23:55:37.714Z,100734.66
2022-10-29T23:58:06.000Z,100740.34
